createdAt,value
2023-02-11T00:08:17.373Z,-5.13
2023-02-11T00:20:17.790Z,-5.34
2023-02-11T00:32:18.296Z,-5.67
2023-02-11T00:44:18.722Z,-5.69
2023-02-11T00:56:19.336Z,-5.14
2023-02-11T01:08:19.659Z,-6.03
2023-02-11T01:20:20.043Z,-5.63
2023-02-11T01:32:20.547Z,-6.32
2023-02-11T01:44:21.040Z,-5.92
2023-02-11T01:56:21.445Z,-5.61
2023-02-11T02:08:21.895Z,-5.69
2023-02-11T02:20:22.340Z,-6.30
2023-02-11T02:32:22.811Z,-5.97
2023-02-11T02:44:23.262Z,-6.24
2023-02-11T07:16:24.764Z,-4.89
2023-02-11T07:28:25.130Z,-4.32
2023-02-11T07:40:25.517Z,-3.76
2023-02-11T07:52:25.932Z,-3.25
2023-02-11T08:04:26.409Z,-3.21
2023-02-11T08:16:26.953Z,-2.44
2023-02-11T08:28:27.460Z,-2.11
2023-02-11T08:40:27.785Z,-1.49
2023-02-11T08:52:28.213Z,-0.54
2023-02-11T09:04:28.669Z,0.72
2023-02-11T09:16:29.191Z,2.52
2023-02-11T09:28:29.654Z,2.94
2023-02-11T09:40:29.997Z,3.11
2023-02-11T09:52:30.491Z,3.93
2023-02-11T10:04:30.989Z,4.91
2023-02-11T10:16:31.382Z,6.01
2023-02-11T10:28:31.934Z,6.35
2023-02-11T10:40:32.293Z,6.51
2023-02-11T10:52:32.773Z,6.99
2023-02-11T11:04:33.265Z,8.74
2023-02-11T11:16:33.669Z,9.11
2023-02-11T11:28:34.173Z,8.29
2023-02-11T11:40:34.598Z,8.24
2023-02-11T11:52:35.026Z,8.91
2023-02-11T12:04:35.480Z,9.32
2023-02-11T12:16:35.989Z,9.88
2023-02-11T12:28:36.458Z,9.24
2023-02-11T12:40:36.858Z,9.26
2023-02-11T12:52:37.315Z,9.38
2023-02-11T13:04:37.734Z,9.42
2023-02-11T13:16:38.301Z,9.93
2023-02-11T13:28:38.707Z,9.55
2023-02-11T13:40:39.130Z,9.47
2023-02-11T13:52:39.620Z,9.26
2023-02-11T14:04:40.038Z,9.08
2023-02-11T14:16:40.498Z,8.73
2023-02-11T14:28:40.968Z,8.59
2023-02-11T14:40:41.382Z,8.51
2023-02-11T14:52:41.860Z,8.91
2023-02-11T15:04:42.292Z,8.02
2023-02-11T15:16:42.828Z,8.06
2023-02-11T15:28:43.204Z,7.50
2023-02-11T15:40:43.687Z,7.01
2023-02-11T15:52:44.098Z,6.30
2023-02-11T16:04:44.583Z,5.45
2023-02-11T16:16:44.989Z,5.12
2023-02-11T16:28:45.494Z,4.71
2023-02-11T16:40:45.948Z,4.06
2023-02-11T16:52:46.386Z,4.29
2023-02-11T17:04:46.973Z,3.90
2023-02-11T17:16:47.307Z,3.74
2023-02-11T17:28:47.763Z,3.84
2023-02-11T17:40:48.161Z,3.42
2023-02-11T17:52:48.974Z,3.19
2023-02-11T18:04:49.140Z,3.12
2023-02-11T18:16:49.723Z,3.07
2023-02-11T18:28:49.965Z,2.88
2023-02-11T18:40:50.424Z,2.79
2023-02-11T18:52:50.889Z,2.42
2023-02-11T19:04:51.340Z,2.41
2023-02-11T19:16:51.834Z,2.74
2023-02-11T19:28:52.263Z,2.56
2023-02-11T19:40:52.687Z,2.03
2023-02-11T19:52:53.150Z,2.33
2023-02-11T20:04:53.618Z,1.90
2023-02-11T20:16:54.052Z,1.48
2023-02-11T20:28:54.484Z,2.01
2023-02-11T20:40:54.933Z,1.65
2023-02-11T20:52:55.399Z,1.67
2023-02-11T21:04:55.869Z,1.84
2023-02-11T21:16:56.404Z,1.99
2023-02-11T21:28:56.784Z,1.59
2023-02-11T21:40:57.304Z,1.49
2023-02-11T21:52:57.668Z,1.43
2023-02-11T22:04:58.228Z,1.48
2023-02-11T22:16:58.569Z,1.51
2023-02-11T22:28:59.044Z,1.09
2023-02-11T22:40:59.452Z,1.45
2023-02-11T22:52:59.982Z,0.84
2023-02-11T23:05:00.363Z,1.26
2023-02-11T23:17:00.925Z,1.30
2023-02-11T23:29:01.333Z,1.42
2023-02-11T23:41:01.733Z,1.39
2023-02-11T23:53:02.206Z,1.44
